| time (UTC) | temp F | wind direction | speed MPH | gust MPH | rain 1hr in | rain 24hr in | rain mn in | humidity % | barometer mb |
| 20260509041546 | 63 | 306 | 1.0 | 4.0 | 0.00 | 0.00 | 0.00 | 34 | 1011.6 |
| 20260509040045 | 63 | 291 | 2.0 | 6.0 | 0.00 | 0.00 | 0.00 | 33 | 1011.2 |
| 20260509034546 | 64 | 262 | 3.0 | 7.0 | 0.00 | 0.00 | 0.00 | 33 | 1010.9 |
| 20260509033043 | 66 | 229 | 4.0 | 15.0 | 0.00 | 0.00 | 0.00 | 29 | 1010.7 |
| 20260509031543 | 65 | 302 | 11.0 | 19.0 | 0.00 | 0.00 | 0.00 | 29 | 1010.5 |
| 20260509030042 | 66 | 335 | 2.0 | 5.0 | 0.00 | 0.00 | 0.00 | 27 | 1010.3 |
| 20260509024542 | 67 | 302 | 3.0 | 6.0 | 0.00 | 0.00 | 0.00 | 25 | 1010.0 |
| 20260509023042 | 65 | 308 | 3.0 | 7.0 | 0.00 | 0.00 | 0.00 | 29 | 1009.8 |
| 20260509021540 | 69 | 13 | 4.0 | 8.0 | 0.00 | 0.00 | 0.00 | 20 | 1009.6 |
| 20260509020039 | 70 | 27 | 7.0 | 12.0 | 0.00 | 0.00 | 0.00 | 19 | 1009.3 |
| 20260509014544 | 71 | 48 | 9.0 | 16.0 | 0.00 | 0.00 | 0.00 | 18 | 1009.1 |
| 20260509013048 | 71 | 21 | 12.0 | 17.0 | 0.00 | 0.00 | 0.00 | 19 | 1009.1 |
| 20260509011542 | 71 | 22 | 12.0 | 18.0 | 0.00 | 0.00 | 0.00 | 18 | 1009.1 |
| 20260509010037 | 71 | 353 | 6.0 | 15.0 | 0.00 | 0.00 | 0.00 | 22 | 1009.1 |
| 20260509004535 | 72 | 359 | 12.0 | 22.0 | 0.00 | 0.00 | 0.00 | 17 | 1009.1 |
| 20260509003036 | 72 | 333 | 12.0 | 23.0 | 0.00 | 0.00 | 0.00 | 19 | 1009.1 |
| 20260509001534 | 72 | 338 | 8.0 | 19.0 | 0.00 | 0.00 | 0.00 | 20 | 1009.3 |
| 20260509000032 | 73 | 18 | 13.0 | 20.0 | 0.00 | 0.00 | 0.00 | 18 | 1009.2 |
| 20260508234534 | 73 | 342 | 10.0 | 16.0 | 0.00 | 0.00 | 0.00 | 21 | 1009.2 |
| 20260508233033 | 73 | 345 | 11.0 | 18.0 | 0.00 | 0.00 | 0.00 | 23 | 1009.1 |
| 20260508231527 | 74 | 353 | 13.0 | 16.0 | 0.00 | 0.00 | 0.00 | 19 | 1009.1 |
| 20260508230023 | 74 | 359 | 10.0 | 17.0 | 0.00 | 0.00 | 0.00 | 20 | 1009.2 |
| 20260508224520 | 75 | 330 | 12.0 | 19.0 | 0.00 | 0.00 | 0.00 | 20 | 1009.0 |
| 20260508223024 | 74 | 339 | 14.0 | 21.0 | 0.00 | 0.00 | 0.00 | 21 | 1009.1 |
| 20260508221518 | 75 | 29 | 14.0 | 24.0 | 0.00 | 0.00 | 0.00 | 20 | 1009.1 |
| 20260508220016 | 76 | 318 | 9.0 | 15.0 | 0.00 | 0.00 | 0.00 | 20 | 1009.1 |
| 20260508214514 | 76 | 338 | 8.0 | 16.0 | 0.00 | 0.00 | 0.00 | 20 | 1009.3 |
| 20260508213012 | 76 | 320 | 12.0 | 23.0 | 0.00 | 0.00 | 0.00 | 21 | 1009.5 |
| 20260508211521 | 75 | 338 | 8.0 | 14.0 | 0.00 | 0.00 | 0.00 | 19 | 1009.5 |
| 20260508210008 | 75 | 308 | 9.0 | 21.0 | 0.00 | 0.00 | 0.00 | 19 | 1009.6 |
| 20260508204507 | 75 | 309 | 9.0 | 15.0 | 0.00 | 0.00 | 0.00 | 21 | 1009.7 |
| 20260508203003 | 74 | 349 | 12.0 | 20.0 | 0.00 | 0.00 | 0.00 | 21 | 1009.7 |
| 20260508201600 | 73 | 323 | 10.0 | 23.0 | 0.00 | 0.00 | 0.00 | 19 | 1009.8 |
| 20260508200110 | 73 | 351 | 7.0 | 14.0 | 0.00 | 0.00 | 0.00 | 20 | 1009.9 |
| 20260508194603 | 74 | 288 | 12.0 | 17.0 | 0.00 | 0.00 | 0.00 | 20 | 1009.9 |
| 20260508193056 | 73 | 290 | 12.0 | 17.0 | 0.00 | 0.00 | 0.00 | 25 | 1010.1 |
| 20260508191554 | 72 | 291 | 6.0 | 10.0 | 0.00 | 0.00 | 0.00 | 27 | 1010.4 |
| 20260508190046 | 72 | 293 | 6.0 | 11.0 | 0.00 | 0.00 | 0.00 | 27 | 1010.6 |
| 20260508184548 | 71 | 303 | 7.0 | 12.0 | 0.00 | 0.00 | 0.00 | 29 | 1010.9 |
| 20260508183040 | 70 | 286 | 4.0 | 13.0 | 0.00 | 0.00 | 0.00 | 29 | 1011.2 |
| 20260508181539 | 69 | 316 | 5.0 | 13.0 | 0.00 | 0.00 | 0.00 | 32 | 1011.3 |
| 20260508180032 | 68 | 305 | 4.0 | 10.0 | 0.00 | 0.00 | 0.00 | 35 | 1011.5 |
| 20260508174530 | 67 | 316 | 4.0 | 10.0 | 0.00 | 0.00 | 0.00 | 38 | 1011.7 |
| 20260508173026 | 67 | 284 | 2.0 | 6.0 | 0.00 | 0.00 | 0.00 | 41 | 1011.9 |
| 20260508171527 | 65 | 303 | 0.0 | 6.0 | 0.00 | 0.00 | 0.00 | 43 | 1012.0 |
| 20260508170021 | 65 | 289 | 1.0 | 7.0 | 0.00 | 0.00 | 0.00 | 44 | 1012.1 |
| 20260508164517 | 63 | 281 | 0.0 | 2.0 | 0.00 | 0.00 | 0.00 | 48 | 1012.3 |
| 20260508163013 | 62 | 197 | 0.0 | 0.0 | 0.00 | 0.00 | 0.00 | 51 | 1012.4 |
| 20260508161511 | 62 | 123 | 0.0 | 2.0 | 0.00 | 0.00 | 0.00 | 53 | 1012.6 |
| 20260508160012 | 59 | 148 | 1.0 | 3.0 | 0.00 | 0.00 | 0.00 | 58 | 1012.7 |
| 20260508154504 | 57 | 113 | 2.0 | 3.0 | 0.00 | 0.00 | 0.00 | 62 | 1012.8 |
| 20260508153003 | 57 | 168 | 1.0 | 2.0 | 0.00 | 0.00 | 0.00 | 61 | 1013.0 |
| 20260508151602 | 56 | 198 | 1.0 | 2.0 | 0.00 | 0.00 | 0.00 | 63 | 1013.0 |
| 20260508150054 | 53 | 202 | 1.0 | 2.0 | 0.00 | 0.00 | 0.00 | 70 | 1013.1 |
| 20260508144554 | 51 | 231 | 0.0 | 2.0 | 0.00 | 0.00 | 0.00 | 74 | 1013.3 |
| 20260508143057 | 50 | 255 | 2.0 | 4.0 | 0.00 | 0.00 | 0.00 | 76 | 1013.4 |
| 20260508141552 | 49 | 223 | 1.0 | 3.0 | 0.00 | 0.00 | 0.00 | 76 | 1013.4 |
| 20260508140056 | 47 | 246 | 1.0 | 4.0 | 0.00 | 0.00 | 0.00 | 80 | 1013.6 |
| 20260508134553 | 46 | 273 | 2.0 | 5.0 | 0.00 | 0.00 | 0.00 | 83 | 1013.6 |
| 20260508133055 | 44 | 278 | 2.0 | 7.0 | 0.00 | 0.00 | 0.00 | 84 | 1013.6 |
| 20260508131549 | 44 | 272 | 2.0 | 6.0 | 0.00 | 0.00 | 0.00 | 84 | 1013.6 |
| 20260508130100 | 44 | 283 | 1.0 | 2.0 | 0.00 | 0.00 | 0.00 | 87 | 1013.6 |
| 20260508124549 | 43 | 275 | 1.0 | 3.0 | 0.00 | 0.00 | 0.00 | 87 | 1013.4 |
| 20260508123053 | 42 | 274 | 1.0 | 6.0 | 0.00 | 0.00 | 0.00 | 87 | 1013.4 |
| 20260508121543 | 43 | 256 | 1.0 | 3.0 | 0.00 | 0.00 | 0.00 | 86 | 1013.5 |
| 20260508120038 | 43 | 259 | 0.0 | 0.0 | 0.00 | 0.00 | 0.00 | 88 | 1013.4 |
| 20260508114545 | 43 | 259 | 0.0 | 0.0 | 0.00 | 0.00 | 0.00 | 87 | 1013.4 |
| 20260508113033 | 44 | 259 | 0.0 | 2.0 | 0.00 | 0.00 | 0.00 | 85 | 1013.5 |
| 20260508111532 | 43 | 58 | 0.0 | 0.0 | 0.00 | 0.00 | 0.00 | 83 | 1013.5 |
| 20260508110036 | 44 | 58 | 0.0 | 1.0 | 0.00 | 0.00 | 0.00 | 83 | 1013.5 |
| 20260508104529 | 43 | 58 | 0.0 | 2.0 | 0.00 | 0.00 | 0.00 | 82 | 1013.5 |
| 20260508103037 | 44 | 58 | 0.0 | 2.0 | 0.00 | 0.00 | 0.00 | 83 | 1013.5 |
| 20260508101527 | 44 | 290 | 0.0 | 1.0 | 0.00 | 0.00 | 0.00 | 82 | 1013.5 |
| 20260508100025 | 44 | 295 | 0.0 | 3.0 | 0.00 | 0.00 | 0.00 | 83 | 1013.6 |
| 20260508094539 | 44 | 319 | 1.0 | 4.0 | 0.00 | 0.00 | 0.00 | 81 | 1013.4 |
| 20260508093025 | 44 | 353 | 0.0 | 2.0 | 0.00 | 0.00 | 0.00 | 81 | 1013.3 |
| 20260508091538 | 45 | 357 | 1.0 | 3.0 | 0.00 | 0.00 | 0.00 | 79 | 1013.5 |
| 20260508090016 | 45 | 353 | 0.0 | 5.0 | 0.00 | 0.00 | 0.00 | 78 | 1013.5 |
| 20260508084512 | 46 | 347 | 3.0 | 7.0 | 0.00 | 0.00 | 0.00 | 77 | 1013.5 |
| 20260508083008 | 48 | 354 | 6.0 | 9.0 | 0.00 | 0.00 | 0.00 | 73 | 1013.3 |
| 20260508081521 | 49 | 8 | 5.0 | 10.0 | 0.00 | 0.00 | 0.00 | 66 | 1013.3 |
| 20260508080004 | 49 | 356 | 4.0 | 7.0 | 0.00 | 0.00 | 0.00 | 66 | 1013.4 |
| 20260508074500 | 49 | 359 | 3.0 | 7.0 | 0.00 | 0.00 | 0.00 | 70 | 1013.4 |
| 20260508073108 | 49 | 359 | 3.0 | 8.0 | 0.00 | 0.00 | 0.00 | 71 | 1013.5 |
| 20260508071622 | 49 | 353 | 2.0 | 4.0 | 0.00 | 0.00 | 0.00 | 71 | 1013.4 |
| 20260508070101 | 50 | 326 | 1.0 | 5.0 | 0.00 | 0.00 | 0.00 | 69 | 1013.5 |
| 20260508064552 | 50 | 1 | 1.0 | 4.0 | 0.00 | 0.00 | 0.00 | 73 | 1013.3 |
| 20260508063048 | 51 | 11 | 2.0 | 4.0 | 0.00 | 0.00 | 0.00 | 68 | 1013.2 |
| 20260508061547 | 53 | 341 | 3.0 | 6.0 | 0.00 | 0.00 | 0.00 | 63 | 1013.1 |
| 20260508060043 | 52 | 278 | 0.0 | 5.0 | 0.00 | 0.00 | 0.00 | 64 | 1013.1 |
| 20260508054547 | 52 | 233 | 0.0 | 3.0 | 0.00 | 0.00 | 0.00 | 67 | 1013.1 |
| 20260508053044 | 54 | 356 | 4.0 | 7.0 | 0.00 | 0.00 | 0.00 | 60 | 1012.9 |
| 20260508051542 | 54 | 2 | 0.0 | 0.0 | 0.00 | 0.00 | 0.00 | 62 | 1012.9 |
| 20260508050036 | 55 | 14 | 0.0 | 0.0 | 0.00 | 0.00 | 0.00 | 57 | 1012.9 |
| 20260508044536 | 55 | 13 | 0.0 | 0.0 | 0.00 | 0.00 | 0.00 | 54 | 1012.9 |
| 20260508043035 | 57 | 347 | 0.0 | 0.0 | 0.00 | 0.00 | 0.00 | 52 | 1012.9 |